Impacts TAF Board
For situational awareness. Not to be used for flight planning purposes.
IDs:

KSEA - Seattle-Tacoma Intl, WA, US

Issued at 2104 UTC 06 Dec 2019
Updated at 2114 UTC 06 Dec 2019
Potential Impact None Slight Moderate High
Time<<07/10Z 07/11Z 07/12Z 07/13Z 07/14Z 07/15Z 07/16Z 07/17Z 07/18Z 07/19Z 07/20Z 07/21Z 07/22Z>>
Type PRVL PRVL PRVL PRVL PRVL PRVL PRVL PRVL PRVL PRVL PRVL PRVL PRVL
VIS >6 >6 >6 >6 >6 4 4 4 4 4 >6 >6 >6
CIG 20 20 20 20 20 12 12 12 12 12 15 15 15
Cover OVC OVC OVC OVC OVC OVC OVC OVC OVC OVC BKN BKN BKN
FltCat MVFR MVFR MVFR MVFR MVFR MVFR MVFR MVFR MVFR MVFR MVFR MVFR MVFR
WX -RA -RA -RA -RA -RA -RA BR -RA BR -RA BR -RA BR -RA BR -SHRA -SHRA -SHRA
WDir VRB VRB VRB VRB VRB VRB VRB VRB VRB VRB VRB VRB VRB
WSpd 4 4 4 4 4 4 4 4 4 4 4 4 4
WGst -- -- -- -- -- -- -- -- -- -- -- -- --
Raw TAF
KSEA 062104Z 0621/0724 16005KT P6SM BKN060 BKN150
  FM062200 16005KT P6SM BKN050 OVC090
  FM070200 16008KT P6SM -RA SCT025 OVC050
  FM070800 16008KT P6SM -RA BKN025 OVC040
  FM071000 VRB04KT P6SM -RA OVC020
  FM071500 VRB04KT 4SM -RA BR OVC012
  FM072000 VRB04KT P6SM -SHRA BKN015 BKN030


METAR Board
Radar Display
Forecast Discussion
For situational awareness. Not to be used for flight planning purposes.